Stoneville, South Dakota
Current Conditions -  °F | °C
As of 1:58 AM on Saturday 01 Nov 2014 (Local Time) from KRCA Reporting Station
Clear Clear  
Wind Chill: 34°   Ceiling: Unl
Heat Index: 42°   Visibility: 10mi
Dew Point: 29°   Wind: 16mph
Humidity: 61%   Direction: 180°S
Pressure: 29.83"   Gusts: NA
Location:  44.653°N, 102.847°W
Report Text: KRCA 010758Z AUTO 18014KT 10SM CLR 05/M02 A2983 RMK AO2 SLP113 T00541017 $
Loading
Personal Weather Stations






























Interactive Weather Map New forecast layout! Learn more

10-Day Weather Forecast

Advertisements
Track Severe Weather on mobile